Terminal Aerodrome Forecast
Issued by NWS

Home | Current Version | Previous Version | Text Only | Print | Product List | Glossary On
Versions: 1 2 3 4 5 6 7 8 9 10 11 12 13 14 15
000
FTUS45 KGJT 222331
TAFTEX
TAF
KTEX 222331Z 2300/2324 21004KT P6SM VCTS SCT050CB OVC080
      TEMPO 2300/2302 VRB15G25KT -TSRA BKN050CB
     FM230300 18006KT P6SM VCSH FEW060 BKN120
     FM231500 18009KT P6SM -SHRA SCT030 OVC040
     FM231900 20013G27KT 5SM -SHRA OVC035
     FM232300 20012G26KT P6SM SCT030 BKN050=

USA.gov is the U.S. government's official web portal to all federal, state and local government web resources and services.